Time;durP1;ratioP1;P1;durP2;ratioP2;P2;SDS_P1;SDS_P2;PMS_P1;PMS_P2;Temp;Humidity;BMP_temperature;BMP_pressure;BME280_temperature;BME280_humidity;BME280_pressure;Samples;Min_cycle;Max_cycle;Signal;HPM_P1;HPM_P2
2022/07/27 00:02:15;;;;;;;1.00;1.00;;;18.70;95.20;;;;;;5029951;28;20471;-81
2022/07/27 00:04:41;;;;;;;1.30;1.20;;;18.70;95.20;;;;;;5025936;28;20426;-81
2022/07/27 00:07:06;;;;;;;1.83;1.73;;;18.70;95.40;;;;;;5024975;28;20181;-80
2022/07/27 00:09:32;;;;;;;2.57;1.57;;;18.70;95.30;;;;;;5015282;28;20201;-80
2022/07/27 00:11:58;;;;;;;1.40;1.30;;;18.70;95.50;;;;;;5005545;28;20177;-80
2022/07/27 00:14:23;;;;;;;1.00;0.90;;;18.70;95.50;;;;;;4994977;28;20186;-80
2022/07/27 00:16:49;;;;;;;2.70;1.50;;;18.60;95.40;;;;;;4990427;28;20507;-80
2022/07/27 00:19:14;;;;;;;0.93;0.87;;;18.60;95.30;;;;;;5011037;28;20193;-80
2022/07/27 00:21:40;;;;;;;1.20;1.10;;;18.60;95.50;;;;;;5024842;28;20227;-81
2022/07/27 00:24:06;;;;;;;2.30;1.60;;;18.60;95.50;;;;;;5024795;28;20177;-81
2022/07/27 00:26:31;;;;;;;3.90;1.10;;;18.60;95.40;;;;;;5013086;28;20192;-80
2022/07/27 00:29:04;;;;;;;1.37;1.00;;;18.60;95.30;;;;;;5006026;28;20464;-81
2022/07/27 00:31:29;;;;;;;1.40;1.23;;;18.50;94.60;;;;;;5005468;28;20233;-80
2022/07/27 00:33:55;;;;;;;9.83;1.50;;;18.50;94.60;;;;;;5005981;28;20433;-80
2022/07/27 00:36:20;;;;;;;1.30;1.20;;;18.50;94.30;;;;;;5005914;28;20193;-80
2022/07/27 00:38:46;;;;;;;1.20;1.10;;;18.40;94.40;;;;;;5005213;28;20212;-81
2022/07/27 00:41:11;;;;;;;1.50;1.33;;;18.40;94.30;;;;;;5004786;28;20269;-80
2022/07/27 00:43:54;;;;;;;1.33;1.30;;;18.40;93.90;;;;;;5004403;28;20182;-81
2022/07/27 00:46:21;;;;;;;1.20;1.10;;;18.30;93.90;;;;;;5013676;28;20177;-81
2022/07/27 00:48:46;;;;;;;1.10;1.00;;;18.30;94.00;;;;;;5021762;28;20440;-81
2022/07/27 00:51:15;;;;;;;2.70;0.90;;;18.30;93.80;;;;;;5014277;28;20419;-81
2022/07/27 00:53:41;;;;;;;1.97;1.47;;;18.30;93.30;;;;;;5025797;28;20416;-81
2022/07/27 00:56:07;;;;;;;1.03;0.93;;;18.20;92.80;;;;;;5014421;28;20859;-81
2022/07/27 00:58:32;;;;;;;1.17;1.17;;;18.20;92.50;;;;;;5008010;28;20446;-80
2022/07/27 01:00:58;;;;;;;1.57;1.53;;;18.10;92.40;;;;;;5013598;28;20478;-81
2022/07/27 01:03:24;;;;;;;1.20;1.10;;;18.10;91.60;;;;;;5007387;28;20486;-81
2022/07/27 01:05:50;;;;;;;2.80;1.87;;;18.00;91.10;;;;;;5025245;28;20422;-81
2022/07/27 01:08:16;;;;;;;1.20;1.10;;;18.00;90.60;;;;;;5007985;28;20221;-81
2022/07/27 01:10:43;;;;;;;2.20;1.40;;;17.90;90.20;;;;;;5005229;28;20217;-81
2022/07/27 01:13:08;;;;;;;1.20;1.10;;;17.90;90.10;;;;;;5019842;28;20267;-81
2022/07/27 01:15:36;;;;;;;2.40;1.50;;;17.90;90.00;;;;;;5015522;28;20424;-81
2022/07/27 01:18:02;;;;;;;1.20;1.10;;;17.80;89.70;;;;;;5004386;28;20563;-80
2022/07/27 01:20:28;;;;;;;4.00;1.37;;;17.80;89.80;;;;;;5004030;28;20539;-81
2022/07/27 01:22:53;;;;;;;5.73;1.30;;;17.80;90.10;;;;;;5006776;28;20181;-81
2022/07/27 01:25:19;;;;;;;3.53;1.40;;;17.80;89.80;;;;;;5023923;28;20176;-80
2022/07/27 01:27:44;;;;;;;1.07;0.97;;;17.80;89.50;;;;;;5021299;28;20173;-81
2022/07/27 01:30:26;;;;;;;1.20;1.10;;;17.80;89.10;;;;;;5004135;28;20186;-81
2022/07/27 01:32:59;;;;;;;1.00;0.90;;;17.70;89.10;;;;;;5003502;28;20182;-81
2022/07/27 01:35:25;;;;;;;2.70;1.60;;;17.70;89.30;;;;;;5015109;28;20482;-81
2022/07/27 01:37:50;;;;;;;1.20;1.10;;;17.70;89.60;;;;;;5005096;28;20425;-81
2022/07/27 01:40:16;;;;;;;1.30;1.20;;;17.70;89.50;;;;;;5004989;28;20229;-81
2022/07/27 01:42:41;;;;;;;1.10;1.00;;;17.60;89.40;;;;;;5016587;28;20421;-80
2022/07/27 01:45:08;;;;;;;1.53;1.20;;;17.60;89.80;;;;;;5004730;28;20190;-81
2022/07/27 01:47:33;;;;;;;1.27;1.20;;;17.50;90.00;;;;;;5008926;28;20187;-81
2022/07/27 01:49:59;;;;;;;1.00;0.90;;;17.50;90.00;;;;;;5023116;28;20515;-81
2022/07/27 01:52:24;;;;;;;0.80;0.80;;;17.40;90.10;;;;;;5011572;28;20180;-81
2022/07/27 01:54:50;;;;;;;1.00;0.90;;;17.40;90.00;;;;;;5012070;28;20567;-81
2022/07/27 01:57:15;;;;;;;2.00;1.67;;;17.40;89.50;;;;;;5021190;28;20555;-80
2022/07/27 01:59:41;;;;;;;6.33;1.73;;;17.30;89.80;;;;;;5011000;28;20220;-81
2022/07/27 02:02:06;;;;;;;1.00;0.90;;;17.30;89.50;;;;;;4991099;28;20222;-81
2022/07/27 02:04:32;;;;;;;1.47;1.37;;;17.20;89.30;;;;;;5010896;28;20211;-81
2022/07/27 02:06:58;;;;;;;1.17;1.07;;;17.20;89.50;;;;;;5004062;28;20186;-81
2022/07/27 02:09:24;;;;;;;3.03;1.53;;;17.20;89.60;;;;;;5017830;28;20197;-81
2022/07/27 02:14:34;;;;;;;2.20;1.20;;;17.20;89.60;;;;;;5004987;28;20494;-81
2022/07/27 02:17:00;;;;;;;1.20;1.10;;;17.20;89.50;;;;;;5007211;28;20444;-81
2022/07/27 02:19:27;;;;;;;1.10;1.00;;;17.10;89.40;;;;;;5012776;28;20599;-81
2022/07/27 02:21:53;;;;;;;5.50;2.20;;;17.10;89.50;;;;;;5017985;28;20186;-81
2022/07/27 02:24:18;;;;;;;1.40;1.13;;;17.10;89.60;;;;;;5003565;28;20429;-81
2022/07/27 02:26:44;;;;;;;0.97;0.90;;;17.10;89.80;;;;;;5003386;28;20475;-81
2022/07/27 02:29:10;;;;;;;1.00;1.00;;;17.10;89.70;;;;;;5023054;28;20201;-81
2022/07/27 02:31:35;;;;;;;1.10;1.00;;;17.10;89.50;;;;;;5023828;28;20200;-81
2022/07/27 02:34:01;;;;;;;1.30;1.20;;;17.10;89.70;;;;;;5009463;28;20208;-81
2022/07/27 02:36:28;;;;;;;1.17;1.10;;;17.00;89.90;;;;;;5023513;28;20216;-81
2022/07/27 02:38:54;;;;;;;1.67;1.40;;;17.00;90.10;;;;;;5022877;28;20197;-81
2022/07/27 02:41:19;;;;;;;9.47;2.13;;;17.00;90.20;;;;;;5022570;28;20460;-81
2022/07/27 02:43:45;;;;;;;1.00;0.90;;;17.00;90.20;;;;;;5023259;28;20435;-81
2022/07/27 02:46:10;;;;;;;9.23;2.63;;;17.00;90.10;;;;;;5009081;28;20200;-81
2022/07/27 02:48:36;;;;;;;1.40;1.30;;;17.00;90.00;;;;;;5009574;28;20253;-81
2022/07/27 02:51:02;;;;;;;4.50;1.30;;;17.00;90.00;;;;;;5021477;28;20196;-81
2022/07/27 02:53:28;;;;;;;1.20;1.10;;;17.00;90.40;;;;;;5022680;28;20195;-81
2022/07/27 02:55:54;;;;;;;1.80;1.07;;;17.00;90.70;;;;;;5013671;28;20804;-81
2022/07/27 02:58:20;;;;;;;0.97;0.93;;;16.90;90.60;;;;;;4995542;28;20512;-81
2022/07/27 03:00:46;;;;;;;4.30;1.60;;;16.90;90.30;;;;;;5002198;28;20363;-81
2022/07/27 03:03:12;;;;;;;1.20;1.10;;;16.90;89.90;;;;;;5002848;28;20210;-81
2022/07/27 03:05:38;;;;;;;1.30;1.20;;;16.80;89.90;;;;;;5014958;28;20589;-81
2022/07/27 03:08:04;;;;;;;1.00;0.90;;;16.80;90.10;;;;;;5003416;28;20556;-81
2022/07/27 03:10:30;;;;;;;1.17;1.13;;;16.80;90.00;;;;;;5003175;28;20520;-81
2022/07/27 03:12:56;;;;;;;1.10;1.00;;;16.70;90.10;;;;;;5009997;28;20428;-81
2022/07/27 03:15:22;;;;;;;6.60;1.87;;;16.70;90.30;;;;;;5008835;28;20415;-81
2022/07/27 03:17:47;;;;;;;1.10;1.00;;;16.70;90.40;;;;;;5023290;28;20450;-81
2022/07/27 03:20:13;;;;;;;2.60;1.67;;;16.60;90.70;;;;;;5021996;28;20207;-81
2022/07/27 03:22:39;;;;;;;1.10;1.00;;;16.60;91.10;;;;;;5021812;28;20181;-81
2022/07/27 03:25:05;;;;;;;1.30;1.20;;;16.60;91.20;;;;;;5015579;28;20185;-80
2022/07/27 03:27:30;;;;;;;1.00;0.90;;;16.60;91.20;;;;;;5002327;28;20194;-81
2022/07/27 03:29:56;;;;;;;1.10;1.00;;;16.60;91.60;;;;;;5018081;28;20479;-81
2022/07/27 03:32:22;;;;;;;5.30;1.57;;;16.60;91.90;;;;;;5010756;28;20648;-81
2022/07/27 03:34:47;;;;;;;1.10;1.00;;;16.60;91.90;;;;;;5020295;28;20269;-81
2022/07/27 03:37:15;;;;;;;4.67;2.30;;;16.50;91.90;;;;;;5010607;28;20190;-81
2022/07/27 03:39:41;;;;;;;1.20;1.10;;;16.50;92.20;;;;;;5015844;28;20236;-81
2022/07/27 03:42:07;;;;;;;6.80;1.50;;;16.50;92.50;;;;;;5003492;28;20832;-81
2022/07/27 03:44:32;;;;;;;1.93;1.60;;;16.50;92.50;;;;;;5008097;28;20189;-81
2022/07/27 03:46:58;;;;;;;1.83;1.40;;;16.40;92.70;;;;;;5010713;28;20189;-81
2022/07/27 03:49:24;;;;;;;1.63;1.53;;;16.40;92.80;;;;;;5003284;28;20206;-81
2022/07/27 03:51:49;;;;;;;2.20;1.33;;;16.40;93.00;;;;;;5002673;28;20208;-81
2022/07/27 03:54:16;;;;;;;1.73;1.63;;;16.40;93.10;;;;;;5016091;28;20182;-81
2022/07/27 03:56:42;;;;;;;1.30;1.20;;;16.30;93.40;;;;;;5002568;28;20189;-81
2022/07/27 03:59:08;;;;;;;1.40;1.30;;;16.30;93.50;;;;;;5015589;28;20464;-81
2022/07/27 04:01:34;;;;;;;1.30;1.20;;;16.30;93.60;;;;;;5002607;28;20465;-80
2022/07/27 04:04:00;;;;;;;3.40;1.50;;;16.30;93.20;;;;;;5015812;28;20181;-81
2022/07/27 04:06:26;;;;;;;1.20;1.10;;;16.30;93.40;;;;;;5014207;28;20459;-81
2022/07/27 04:08:52;;;;;;;1.20;1.20;;;16.30;93.40;;;;;;5023629;28;20190;-81
2022/07/27 04:11:17;;;;;;;1.20;1.20;;;16.30;93.30;;;;;;5011023;28;20193;-81
2022/07/27 04:13:43;;;;;;;1.40;1.10;;;16.30;93.30;;;;;;5015544;28;20425;-81
2022/07/27 04:16:08;;;;;;;2.70;1.93;;;16.30;93.00;;;;;;5012843;28;20189;-81
2022/07/27 04:18:34;;;;;;;1.50;1.50;;;16.30;92.90;;;;;;5021880;28;20212;-81
2022/07/27 04:21:02;;;;;;;2.63;1.27;;;16.30;93.10;;;;;;5022203;28;20209;-81
2022/07/27 04:23:28;;;;;;;1.00;1.00;;;16.30;93.40;;;;;;5003635;28;20189;-81
2022/07/27 04:25:53;;;;;;;1.67;1.60;;;16.30;93.70;;;;;;4991313;28;20422;-81
2022/07/27 04:28:19;;;;;;;1.00;0.90;;;16.30;93.90;;;;;;4983282;28;20782;-81
2022/07/27 04:30:44;;;;;;;3.97;1.43;;;16.30;94.30;;;;;;4982830;28;20183;-81
2022/07/27 04:33:10;;;;;;;1.83;1.20;;;16.30;93.50;;;;;;4995842;28;20550;-81
2022/07/27 04:35:36;;;;;;;1.27;1.10;;;16.30;94.10;;;;;;4982976;28;20567;-81
2022/07/27 04:38:01;;;;;;;1.57;1.47;;;16.30;94.30;;;;;;5016060;28;20201;-81
2022/07/27 04:40:34;;;;;;;1.33;1.23;;;16.30;93.90;;;;;;5016443;28;20201;-82
2022/07/27 04:43:02;;;;;;;1.30;1.20;;;16.30;93.70;;;;;;5005178;28;20205;-81
2022/07/27 04:45:28;;;;;;;1.00;0.90;;;16.30;93.50;;;;;;5005565;28;20416;-81
2022/07/27 04:47:54;;;;;;;0.90;0.90;;;16.30;93.80;;;;;;5005200;28;20480;-80
2022/07/27 04:50:19;;;;;;;1.10;1.00;;;16.30;93.70;;;;;;5004306;28;20417;-81
2022/07/27 04:52:45;;;;;;;4.10;1.43;;;16.30;93.90;;;;;;5006948;28;20186;-81
2022/07/27 04:55:11;;;;;;;1.10;1.00;;;16.40;94.00;;;;;;5018780;28;20712;-81
2022/07/27 04:57:36;;;;;;;1.30;1.20;;;16.40;93.50;;;;;;5013680;28;20181;-81
2022/07/27 05:00:04;;;;;;;2.30;1.50;;;16.40;93.70;;;;;;5025257;28;20201;-81
2022/07/27 05:02:30;;;;;;;1.60;1.57;;;16.40;93.60;;;;;;5017499;28;20193;-80
2022/07/27 05:04:58;;;;;;;1.03;0.97;;;16.40;93.70;;;;;;5005515;28;20444;-82
2022/07/27 05:07:23;;;;;;;2.70;1.50;;;16.30;93.20;;;;;;5024458;28;20519;-81
2022/07/27 05:09:49;;;;;;;1.70;1.60;;;16.30;93.20;;;;;;5011091;28;20858;-80
2022/07/27 05:12:15;;;;;;;3.93;1.50;;;16.30;93.20;;;;;;5001869;28;20233;-81
2022/07/27 05:14:40;;;;;;;1.00;1.00;;;16.30;93.50;;;;;;5004457;28;20249;-81
2022/07/27 05:17:06;;;;;;;1.60;1.50;;;16.30;93.40;;;;;;5003959;28;20688;-81
2022/07/27 05:19:32;;;;;;;1.23;1.20;;;16.30;93.50;;;;;;5016972;28;20190;-80
2022/07/27 05:21:58;;;;;;;3.03;1.03;;;16.30;93.30;;;;;;5003490;28;20214;-81
2022/07/27 05:24:24;;;;;;;1.63;1.10;;;16.30;93.00;;;;;;5004941;28;20425;-81
2022/07/27 05:26:50;;;;;;;0.80;0.80;;;16.30;93.70;;;;;;4992211;28;20463;-81
2022/07/27 05:29:15;;;;;;;1.37;1.20;;;16.30;93.80;;;;;;5016206;28;20452;-81
2022/07/27 05:31:41;;;;;;;3.80;1.37;;;16.30;93.50;;;;;;5009835;28;20192;-79
2022/07/27 05:34:07;;;;;;;4.80;2.13;;;16.30;93.60;;;;;;5011093;28;20198;-81
2022/07/27 05:36:32;;;;;;;1.07;1.00;;;16.30;93.80;;;;;;5017917;28;20192;-81
2022/07/27 05:38:58;;;;;;;2.80;2.10;;;16.30;93.90;;;;;;4989290;28;20206;-82
2022/07/27 05:41:25;;;;;;;2.17;2.00;;;16.30;93.30;;;;;;5006682;28;20511;-81
2022/07/27 05:43:51;;;;;;;1.40;1.30;;;16.30;93.40;;;;;;5016411;28;20224;-81
2022/07/27 05:46:17;;;;;;;1.77;1.03;;;16.30;93.40;;;;;;5009735;28;20428;-81
2022/07/27 05:48:42;;;;;;;1.40;1.23;;;16.30;93.60;;;;;;5023732;28;20815;-81
2022/07/27 05:51:08;;;;;;;1.10;1.00;;;16.30;94.00;;;;;;5010177;28;20177;-81
2022/07/27 05:53:34;;;;;;;8.87;1.43;;;16.40;94.10;;;;;;5009635;28;20284;-81
2022/07/27 05:56:00;;;;;;;1.30;1.20;;;16.40;94.20;;;;;;5011922;28;20193;-81
2022/07/27 05:58:28;;;;;;;1.40;1.30;;;16.40;94.20;;;;;;5023137;28;20614;-81
2022/07/27 06:00:58;;;;;;;1.13;1.10;;;16.40;94.10;;;;;;4983633;28;20326;-81
2022/07/27 06:03:24;;;;;;;1.10;1.00;;;16.40;94.40;;;;;;5016917;23;20496;-87
2022/07/27 06:05:50;;;;;;;1.40;1.30;;;16.40;93.50;;;;;;5008154;28;20941;-86
2022/07/27 06:08:16;;;;;;;1.23;1.20;;;16.30;94.10;;;;;;5007829;28;20452;-87
2022/07/27 06:10:42;;;;;;;1.10;1.00;;;16.40;94.40;;;;;;5007652;28;20425;-86
2022/07/27 06:13:09;;;;;;;1.00;0.90;;;16.40;94.40;;;;;;5008324;28;20651;-87
2022/07/27 06:15:36;;;;;;;1.30;1.17;;;16.40;94.70;;;;;;5007638;28;20239;-87
2022/07/27 06:18:02;;;;;;;0.87;0.83;;;16.40;94.50;;;;;;5007310;28;20965;-87
2022/07/27 06:20:29;;;;;;;1.93;1.67;;;16.40;94.80;;;;;;5007279;28;20611;-87
2022/07/27 06:22:58;;;;;;;1.10;1.10;;;16.40;94.90;;;;;;4991352;28;20417;-87
2022/07/27 06:25:25;;;;;;;2.40;2.27;;;16.40;95.10;;;;;;5007407;28;20452;-87
2022/07/27 06:27:52;;;;;;;1.57;1.30;;;16.50;94.90;;;;;;4992369;28;20424;-87
2022/07/27 06:30:19;;;;;;;1.77;1.30;;;16.50;95.20;;;;;;5007412;28;20476;-87
2022/07/27 06:32:45;;;;;;;1.37;1.33;;;16.50;94.60;;;;;;5007086;28;20425;-87
2022/07/27 06:35:11;;;;;;;3.10;2.30;;;16.50;94.70;;;;;;5007443;28;20993;-87
2022/07/27 06:37:42;;;;;;;1.00;0.90;;;16.60;94.30;;;;;;4990581;28;20449;-87
2022/07/27 06:40:10;;;;;;;1.10;1.00;;;16.60;93.80;;;;;;5006680;28;20472;-87
2022/07/27 06:42:35;;;;;;;1.47;1.37;;;16.60;94.30;;;;;;5006916;28;20456;-87
2022/07/27 06:45:01;;;;;;;10.10;1.60;;;16.60;94.30;;;;;;4990529;28;20456;-87
2022/07/27 06:47:26;;;;;;;1.10;1.00;;;16.60;94.50;;;;;;4990170;28;20185;-87
2022/07/27 06:49:52;;;;;;;1.33;1.23;;;16.60;94.10;;;;;;5007003;28;20201;-87
2022/07/27 06:52:17;;;;;;;1.17;1.07;;;16.70;93.90;;;;;;5006771;28;20205;-87
2022/07/27 06:54:43;;;;;;;1.73;1.27;;;16.70;93.70;;;;;;4998598;28;20183;-87
2022/07/27 06:57:09;;;;;;;1.00;1.00;;;16.70;94.00;;;;;;5002206;28;20232;-87
2022/07/27 06:59:35;;;;;;;1.77;1.00;;;16.80;93.90;;;;;;5006136;28;20256;-87
2022/07/27 07:02:00;;;;;;;3.30;1.10;;;16.80;93.80;;;;;;5006156;28;20312;-87
2022/07/27 07:04:26;;;;;;;2.47;1.33;;;16.90;94.20;;;;;;4991697;28;20180;-87
2022/07/27 07:06:52;;;;;;;1.33;1.23;;;16.90;94.00;;;;;;5006584;28;20174;-87
2022/07/27 07:09:18;;;;;;;3.33;1.73;;;16.90;93.20;;;;;;5006693;28;20207;-87
2022/07/27 07:11:43;;;;;;;1.60;1.50;;;17.00;93.30;;;;;;5005242;28;20511;-87
2022/07/27 07:14:09;;;;;;;1.10;1.00;;;17.00;93.40;;;;;;4979717;28;20551;-87
2022/07/27 07:16:35;;;;;;;1.20;1.10;;;17.10;93.70;;;;;;5006561;28;20186;-87
2022/07/27 07:19:00;;;;;;;2.50;1.20;;;17.10;93.50;;;;;;5006725;28;20942;-87
2022/07/27 07:21:26;;;;;;;1.17;1.07;;;17.20;92.70;;;;;;5006842;28;20344;-87
2022/07/27 07:23:51;;;;;;;1.30;1.20;;;17.20;92.80;;;;;;4990518;28;20178;-87
2022/07/27 07:26:17;;;;;;;0.90;0.90;;;17.20;92.90;;;;;;4990224;28;20604;-88
2022/07/27 07:28:43;;;;;;;1.30;1.20;;;17.30;92.20;;;;;;5006276;28;20634;-87
2022/07/27 07:31:08;;;;;;;7.37;2.00;;;17.30;92.20;;;;;;5006217;28;20613;-88
2022/07/27 07:33:34;;;;;;;2.30;1.77;;;17.30;93.10;;;;;;4989848;28;20213;-88
2022/07/27 07:35:59;;;;;;;1.00;0.90;;;17.40;93.20;;;;;;4990488;28;20178;-87
2022/07/27 07:38:25;;;;;;;1.13;1.03;;;17.40;92.00;;;;;;5005851;28;20679;-88
2022/07/27 07:40:51;;;;;;;2.80;1.37;;;17.40;91.50;;;;;;5005986;28;20600;-87
2022/07/27 07:43:16;;;;;;;5.37;1.30;;;17.40;92.00;;;;;;4989647;28;20180;-87
2022/07/27 07:45:42;;;;;;;1.87;1.77;;;17.40;92.10;;;;;;5005912;28;20205;-88
2022/07/27 07:48:10;;;;;;;1.00;0.90;;;17.40;91.50;;;;;;5005804;28;20256;-87
2022/07/27 07:50:36;;;;;;;1.37;1.20;;;17.40;91.20;;;;;;4991234;28;20261;-88
2022/07/27 07:53:01;;;;;;;1.40;1.30;;;17.40;91.00;;;;;;4989756;28;20424;-86
2022/07/27 07:55:28;;;;;;;1.27;1.17;;;17.40;91.50;;;;;;5005990;28;20437;-87
2022/07/27 07:57:54;;;;;;;1.00;0.90;;;17.40;91.70;;;;;;5006299;28;20216;-88
2022/07/27 08:00:20;;;;;;;1.00;1.00;;;17.50;91.20;;;;;;5005937;28;20535;-87
2022/07/27 08:02:49;;;;;;;2.00;1.30;;;17.50;90.70;;;;;;5005806;28;20834;-86
2022/07/27 08:05:15;;;;;;;1.17;1.07;;;17.50;90.50;;;;;;5005958;28;20425;-87
2022/07/27 08:07:42;;;;;;;4.00;1.30;;;17.50;90.50;;;;;;5005999;28;20429;-87
2022/07/27 08:10:10;;;;;;;1.00;0.90;;;17.50;90.90;;;;;;5007339;28;20451;-86
2022/07/27 08:12:37;;;;;;;1.50;1.40;;;17.50;91.30;;;;;;4994673;28;20433;-87
2022/07/27 08:15:05;;;;;;;1.17;1.07;;;17.60;91.50;;;;;;4994585;28;21057;-87
2022/07/27 08:17:31;;;;;;;1.03;1.03;;;17.60;90.80;;;;;;5009905;28;20432;-88
2022/07/27 08:19:56;;;;;;;6.53;1.00;;;17.60;90.30;;;;;;5009273;28;20818;-87
2022/07/27 08:22:23;;;;;;;0.90;0.90;;;17.60;90.60;;;;;;4993589;28;20228;-87
2022/07/27 08:24:48;;;;;;;1.00;0.90;;;17.60;90.00;;;;;;5009337;28;20269;-87
2022/07/27 08:27:14;;;;;;;5.90;1.40;;;17.70;89.70;;;;;;4995015;28;20667;-86
2022/07/27 08:29:39;;;;;;;1.47;1.37;;;17.70;89.90;;;;;;4993081;28;20205;-87
2022/07/27 08:32:05;;;;;;;1.07;0.97;;;17.70;89.90;;;;;;5009422;28;20272;-87
2022/07/27 08:34:31;;;;;;;1.10;1.00;;;17.80;89.80;;;;;;5010716;28;20186;-88
2022/07/27 08:36:57;;;;;;;1.00;0.90;;;17.90;90.30;;;;;;5004299;28;20240;-87
2022/07/27 08:39:23;;;;;;;10.30;1.57;;;18.00;89.30;;;;;;4990966;28;20198;-87
2022/07/27 08:41:52;;;;;;;1.03;0.93;;;18.10;90.10;;;;;;4983493;28;20475;-88
2022/07/27 08:44:22;;;;;;;1.10;1.00;;;18.10;89.00;;;;;;4992470;28;20771;-87
2022/07/27 08:46:50;;;;;;;1.27;1.27;;;18.10;88.80;;;;;;5018735;28;20424;-87
2022/07/27 08:49:17;;;;;;;2.40;1.20;;;18.20;89.40;;;;;;4995868;28;20453;-88
2022/07/27 08:51:43;;;;;;;1.47;1.17;;;18.30;88.90;;;;;;4994325;28;20451;-88
2022/07/27 08:54:09;;;;;;;1.00;0.90;;;18.30;88.30;;;;;;5008861;28;20428;-89
2022/07/27 08:56:36;;;;;;;1.33;1.23;;;18.50;90.00;;;;;;5009415;28;20536;-87
2022/07/27 08:59:03;;;;;;;2.40;1.13;;;18.50;88.10;;;;;;5009303;28;20536;-88
2022/07/27 09:01:31;;;;;;;1.20;1.03;;;18.60;89.50;;;;;;5008692;28;20476;-87
2022/07/27 09:03:57;;;;;;;1.13;1.03;;;18.70;89.30;;;;;;4992422;28;20671;-88
2022/07/27 09:06:46;;;;;;;1.30;1.10;;;18.70;88.30;;;;;;5008930;28;20873;-88
2022/07/27 09:09:15;;;;;;;1.00;0.90;;;18.60;88.20;;;;;;5008667;28;20379;-88
2022/07/27 09:11:40;;;;;;;1.97;1.87;;;18.60;88.30;;;;;;5008758;28;20432;-88
2022/07/27 09:14:11;;;;;;;2.70;1.20;;;18.50;88.20;;;;;;5008852;28;21034;-87
2022/07/27 09:16:38;;;;;;;2.20;1.37;;;18.60;88.20;;;;;;4991080;28;20269;-87
2022/07/27 09:19:07;;;;;;;1.67;1.10;;;18.70;89.10;;;;;;4997801;28;20816;-88
2022/07/27 09:21:35;;;;;;;4.23;1.30;;;18.70;87.70;;;;;;5007578;28;20472;-87
2022/07/27 09:24:11;;;;;;;1.30;1.20;;;18.80;87.40;;;;;;5008645;28;20986;-87
2022/07/27 09:26:37;;;;;;;1.20;1.10;;;18.90;87.10;;;;;;5008379;28;20424;-87
2022/07/27 09:29:08;;;;;;;1.23;1.20;;;18.90;86.00;;;;;;4993669;28;20433;-89
2022/07/27 09:31:40;;;;;;;1.00;0.90;;;19.00;86.90;;;;;;5008140;28;20190;-87
2022/07/27 09:34:06;;;;;;;2.20;1.50;;;19.10;87.40;;;;;;4991868;28;20413;-87
2022/07/27 09:36:31;;;;;;;4.43;1.73;;;19.10;85.80;;;;;;5008209;28;20435;-87
2022/07/27 09:39:01;;;;;;;12.77;1.57;;;19.30;85.40;;;;;;5008559;28;20236;-87
2022/07/27 09:41:41;;;;;;;1.00;0.90;;;19.40;85.40;;;;;;5008288;28;20215;-87
2022/07/27 09:44:07;;;;;;;11.47;1.20;;;19.50;84.80;;;;;;5008066;28;20433;-86
2022/07/27 09:46:35;;;;;;;1.00;0.90;;;19.50;86.10;;;;;;5008128;28;20425;-87
2022/07/27 09:49:02;;;;;;;1.33;1.30;;;19.50;84.70;;;;;;4992927;28;20439;-87
2022/07/27 09:51:28;;;;;;;1.10;1.00;;;19.50;84.10;;;;;;4999932;28;20434;-88
2022/07/27 09:53:55;;;;;;;1.03;1.00;;;19.60;83.50;;;;;;5003026;28;20433;-86
2022/07/27 09:56:26;;;;;;;1.10;1.00;;;19.80;84.70;;;;;;5008067;28;20189;-87
2022/07/27 09:58:57;;;;;;;1.63;1.13;;;19.90;81.40;;;;;;5008446;28;20490;-88
2022/07/27 10:01:26;;;;;;;4.87;1.10;;;20.00;81.80;;;;;;4991564;28;20467;-86
2022/07/27 10:03:56;;;;;;;1.00;0.90;;;20.10;80.30;;;;;;4993164;28;20424;-87
2022/07/27 10:06:23;;;;;;;2.00;1.13;;;20.20;80.40;;;;;;5008498;28;20425;-86
2022/07/27 10:08:51;;;;;;;1.20;1.10;;;20.30;80.80;;;;;;5008009;28;20449;-87
2022/07/27 10:11:18;;;;;;;2.13;1.40;;;20.40;80.40;;;;;;5008079;28;20429;-86
2022/07/27 10:13:45;;;;;;;0.93;0.83;;;20.50;81.40;;;;;;5007962;28;20461;-86
2022/07/27 10:16:13;;;;;;;2.83;1.30;;;20.70;79.20;;;;;;5008002;28;20911;-86
2022/07/27 10:19:01;;;;;;;1.33;1.20;;;20.80;79.20;;;;;;5007499;28;20471;-87
2022/07/27 10:21:28;;;;;;;0.80;0.73;;;20.80;78.20;;;;;;5008552;28;20523;-87
2022/07/27 10:23:59;;;;;;;0.90;0.80;;;20.70;78.30;;;;;;4993026;28;20793;-87
2022/07/27 10:26:24;;;;;;;1.37;1.27;;;20.60;78.80;;;;;;5007395;28;20453;-88
2022/07/27 10:29:11;;;;;;;1.00;0.90;;;20.50;78.70;;;;;;4983493;28;20469;-86
2022/07/27 10:31:39;;;;;;;0.93;0.83;;;20.50;78.00;;;;;;4976601;28;20193;-85
2022/07/27 10:34:07;;;;;;;1.30;1.20;;;20.40;77.80;;;;;;5006527;28;20848;-86
2022/07/27 10:36:33;;;;;;;1.30;1.10;;;20.30;77.50;;;;;;4990910;28;20417;-88
2022/07/27 10:39:04;;;;;;;0.90;0.80;;;20.50;78.30;;;;;;4991302;28;20449;-86
2022/07/27 10:41:33;;;;;;;1.10;1.00;;;20.50;77.40;;;;;;5007254;28;20577;-88
2022/07/27 10:44:15;;;;;;;1.10;1.00;;;20.50;78.00;;;;;;4992939;28;20471;-86
2022/07/27 10:47:05;;;;;;;1.17;0.90;;;20.50;78.50;;;;;;4987992;28;20438;-86
2022/07/27 10:49:33;;;;;;;1.10;1.00;;;20.50;77.30;;;;;;4989415;28;20473;-87
2022/07/27 10:52:00;;;;;;;1.00;0.90;;;20.40;77.80;;;;;;4978890;28;20495;-86
2022/07/27 10:54:33;;;;;;;3.03;1.93;;;20.40;78.80;;;;;;5006048;28;20500;-89
2022/07/27 10:57:01;;;;;;;1.03;0.93;;;20.30;79.90;;;;;;4990492;28;20965;-87
2022/07/27 10:59:38;;;;;;;1.20;1.10;;;20.40;79.80;;;;;;5006756;28;20443;-87
2022/07/27 11:02:13;;;;;;;1.10;1.00;;;20.50;80.00;;;;;;5006895;28;20562;-86
2022/07/27 11:04:48;;;;;;;7.17;1.53;;;20.70;79.60;;;;;;5007093;28;20424;-86
2022/07/27 11:07:19;;;;;;;1.00;0.90;;;20.90;80.20;;;;;;5007067;28;20925;-86
2022/07/27 11:09:47;;;;;;;2.20;1.40;;;21.10;78.60;;;;;;5007108;28;20445;-86
2022/07/27 11:12:14;;;;;;;1.37;1.27;;;21.20;78.80;;;;;;5004349;28;20567;-87
2022/07/27 11:14:48;;;;;;;0.97;0.90;;;21.30;78.30;;;;;;5006775;28;20429;-87
2022/07/27 11:17:16;;;;;;;1.23;1.13;;;21.30;78.60;;;;;;5007210;28;20420;-88
2022/07/27 11:19:42;;;;;;;1.00;0.90;;;21.50;78.20;;;;;;5006847;28;20463;-87
2022/07/27 11:22:08;;;;;;;7.00;1.37;;;21.60;77.90;;;;;;4996631;28;20468;-87
2022/07/27 11:24:36;;;;;;;1.57;1.30;;;21.50;77.90;;;;;;5006644;28;20275;-87
2022/07/27 11:27:03;;;;;;;1.30;1.10;;;21.50;77.90;;;;;;4994102;28;20417;-86
2022/07/27 11:29:35;;;;;;;2.30;1.70;;;21.60;77.60;;;;;;5006508;28;20433;-88
2022/07/27 11:32:02;;;;;;;1.13;1.03;;;21.70;77.60;;;;;;5006586;28;20421;-87
2022/07/27 11:34:33;;;;;;;1.00;0.90;;;21.80;77.00;;;;;;5006467;28;21009;-86
2022/07/27 11:37:04;;;;;;;3.27;0.80;;;21.90;77.30;;;;;;4991008;28;20421;-88
2022/07/27 11:39:33;;;;;;;1.57;1.00;;;21.90;77.40;;;;;;5006477;28;20872;-87
2022/07/27 11:42:01;;;;;;;1.10;1.00;;;21.90;77.20;;;;;;4989940;28;20465;-87
2022/07/27 11:44:28;;;;;;;0.90;0.80;;;21.70;75.80;;;;;;5008185;28;20491;-87
2022/07/27 11:46:55;;;;;;;1.23;1.10;;;21.70;76.40;;;;;;5012832;28;20833;-86
2022/07/27 11:49:29;;;;;;;2.20;1.20;;;21.70;76.40;;;;;;5012807;28;20443;-88
2022/07/27 11:51:58;;;;;;;1.07;0.97;;;21.90;76.40;;;;;;5004993;28;20486;-86
2022/07/27 11:54:32;;;;;;;2.57;1.47;;;22.00;76.30;;;;;;4999642;28;20700;-87
2022/07/27 11:57:03;;;;;;;1.30;1.20;;;22.00;75.60;;;;;;5002237;28;20424;-87
2022/07/27 11:59:30;;;;;;;1.00;0.90;;;21.90;73.50;;;;;;4996242;28;21388;-86
2022/07/27 12:02:01;;;;;;;1.17;1.10;;;21.70;74.00;;;;;;5012125;28;20476;-86
2022/07/27 12:04:57;;;;;;;1.00;0.90;;;21.60;74.90;;;;;;5027011;23;20890;-91
2022/07/27 12:07:36;;;;;;;2.67;1.00;;;21.70;75.30;;;;;;5015459;28;20434;-91
2022/07/27 12:12:58;;;;;;;1.00;0.90;;;22.10;74.10;;;;;;4956301;28;20415;-90
2022/07/27 12:15:26;;;;;;;1.37;1.13;;;22.40;73.60;;;;;;4938972;29;20427;-91
2022/07/27 12:18:16;;;;;;;0.97;0.87;;;22.60;74.00;;;;;;4939600;29;20451;-90
2022/07/27 12:20:57;;;;;;;1.20;1.10;;;22.60;72.80;;;;;;4938642;29;20464;-90
2022/07/27 12:23:37;;;;;;;1.10;0.90;;;22.50;73.00;;;;;;4939012;29;20946;-90
2022/07/27 12:26:27;;;;;;;1.13;1.03;;;22.20;74.10;;;;;;4922345;29;20487;-90
2022/07/27 12:29:28;;;;;;;1.10;1.00;;;22.20;75.20;;;;;;4938669;29;20415;-90
2022/07/27 12:32:06;;;;;;;1.30;1.20;;;22.10;74.00;;;;;;4947302;28;20426;-90
2022/07/27 12:35:08;;;;;;;;;;;;;;;;;;;;;
2022/07/27 12:37:41;;;;;;;0.90;0.83;;;21.90;74.10;;;;;;4967648;28;20459;-90
2022/07/27 12:40:17;;;;;;;1.77;0.97;;;22.10;74.80;;;;;;4959107;28;20501;-89
2022/07/27 12:43:08;;;;;;;1.57;1.23;;;22.30;73.30;;;;;;4960585;28;20425;-91
2022/07/27 12:45:49;;;;;;;1.23;1.13;;;22.30;73.70;;;;;;4962266;28;20409;-91
2022/07/27 12:48:36;;;;;;;1.47;1.37;;;22.30;73.50;;;;;;4986017;28;20431;-91
2022/07/27 12:51:27;;;;;;;1.13;1.13;;;22.40;74.00;;;;;;4997760;28;20417;-91
2022/07/27 12:54:06;;;;;;;1.00;0.90;;;22.70;73.90;;;;;;4991806;28;20440;-91
2022/07/27 12:57:07;;;;;;;0.97;0.87;;;23.00;72.10;;;;;;4995423;28;20482;-90
2022/07/27 12:59:35;;;;;;;1.87;1.27;;;23.40;73.20;;;;;;4995255;28;20432;-90